sensor_id;sensor_type;location;lat;lon;timestamp;pressure;altitude;pressure_sealevel;temperature;humidity
36964;BME280;22878;48.616;35.326;2023-02-02T00:01:01;100372.60;;;-0.13;100.00
36964;BME280;22878;48.616;35.326;2023-02-02T00:03:26;100371.44;;;-0.11;100.00
36964;BME280;22878;48.616;35.326;2023-02-02T00:05:52;100372.11;;;-0.08;100.00
36964;BME280;22878;48.616;35.326;2023-02-02T00:08:20;100372.81;;;-0.06;100.00
36964;BME280;22878;48.616;35.326;2023-02-02T00:14:32;100361.64;;;0.02;100.00
36964;BME280;22878;48.616;35.326;2023-02-02T00:16:58;100357.17;;;0.05;100.00
36964;BME280;22878;48.616;35.326;2023-02-02T00:19:26;100355.02;;;0.07;100.00
36964;BME280;22878;48.616;35.326;2023-02-02T00:21:55;100354.04;;;0.08;100.00
36964;BME280;22878;48.616;35.326;2023-02-02T00:24:21;100355.47;;;0.08;100.00
36964;BME280;22878;48.616;35.326;2023-02-02T00:26:51;100351.98;;;0.10;100.00
36964;BME280;22878;48.616;35.326;2023-02-02T00:29:24;100351.05;;;0.13;100.00
36964;BME280;22878;48.616;35.326;2023-02-02T00:31:50;100346.70;;;0.15;100.00
36964;BME280;22878;48.616;35.326;2023-02-02T00:34:32;100343.20;;;0.17;100.00
36964;BME280;22878;48.616;35.326;2023-02-02T00:36:58;100339.27;;;0.14;100.00
36964;BME280;22878;48.616;35.326;2023-02-02T00:39:24;100338.44;;;0.15;100.00
36964;BME280;22878;48.616;35.326;2023-02-02T00:41:54;100338.55;;;0.17;100.00
36964;BME280;22878;48.616;35.326;2023-02-02T00:44:19;100335.02;;;0.20;100.00
36964;BME280;22878;48.616;35.326;2023-02-02T00:47:04;100336.77;;;0.22;100.00
36964;BME280;22878;48.616;35.326;2023-02-02T00:49:29;100338.17;;;0.22;100.00
36964;BME280;22878;48.616;35.326;2023-02-02T00:51:55;100337.27;;;0.23;100.00
36964;BME280;22878;48.616;35.326;2023-02-02T00:54:21;100332.55;;;0.25;100.00
36964;BME280;22878;48.616;35.326;2023-02-02T00:56:46;100329.95;;;0.26;100.00
36964;BME280;22878;48.616;35.326;2023-02-02T00:59:12;100326.48;;;0.24;100.00
36964;BME280;22878;48.616;35.326;2023-02-02T01:01:38;100323.70;;;0.22;100.00
36964;BME280;22878;48.616;35.326;2023-02-02T01:04:04;100320.69;;;0.24;100.00
36964;BME280;22878;48.616;35.326;2023-02-02T01:06:29;100319.66;;;0.24;100.00
36964;BME280;22878;48.616;35.326;2023-02-02T01:08:55;100311.72;;;0.24;100.00
36964;BME280;22878;48.616;35.326;2023-02-02T01:11:20;100308.65;;;0.26;100.00
36964;BME280;22878;48.616;35.326;2023-02-02T01:17:05;100308.56;;;0.29;100.00
36964;BME280;22878;48.616;35.326;2023-02-02T01:19:30;100314.50;;;0.28;100.00
36964;BME280;22878;48.616;35.326;2023-02-02T01:21:56;100312.02;;;0.28;100.00
36964;BME280;22878;48.616;35.326;2023-02-02T01:27:59;100310.89;;;0.34;100.00
36964;BME280;22878;48.616;35.326;2023-02-02T01:30:25;100307.38;;;0.34;100.00
36964;BME280;22878;48.616;35.326;2023-02-02T01:32:53;100309.09;;;0.34;100.00
36964;BME280;22878;48.616;35.326;2023-02-02T01:35:18;100311.27;;;0.34;100.00
36964;BME280;22878;48.616;35.326;2023-02-02T01:37:44;100313.59;;;0.34;100.00
36964;BME280;22878;48.616;35.326;2023-02-02T01:40:10;100314.92;;;0.34;100.00
36964;BME280;22878;48.616;35.326;2023-02-02T01:42:36;100317.05;;;0.34;100.00
36964;BME280;22878;48.616;35.326;2023-02-02T01:47:34;100319.41;;;0.33;100.00
36964;BME280;22878;48.616;35.326;2023-02-02T01:50:02;100321.44;;;0.32;100.00
36964;BME280;22878;48.616;35.326;2023-02-02T01:52:31;100320.70;;;0.32;100.00
36964;BME280;22878;48.616;35.326;2023-02-02T01:55:02;100325.11;;;0.32;100.00
36964;BME280;22878;48.616;35.326;2023-02-02T01:59:59;100325.52;;;0.33;100.00
36964;BME280;22878;48.616;35.326;2023-02-02T02:02:26;100327.29;;;0.33;100.00
36964;BME280;22878;48.616;35.326;2023-02-02T02:04:54;100324.46;;;0.34;100.00
36964;BME280;22878;48.616;35.326;2023-02-02T02:10:38;100329.81;;;0.37;100.00
36964;BME280;22878;48.616;35.326;2023-02-02T02:13:04;100328.71;;;0.36;100.00
36964;BME280;22878;48.616;35.326;2023-02-02T02:15:33;100325.86;;;0.37;100.00
36964;BME280;22878;48.616;35.326;2023-02-02T02:21:00;100328.27;;;0.36;100.00
36964;BME280;22878;48.616;35.326;2023-02-02T02:32:39;100328.48;;;0.29;100.00
36964;BME280;22878;48.616;35.326;2023-02-02T02:35:11;100327.31;;;0.29;100.00
36964;BME280;22878;48.616;35.326;2023-02-02T02:43:28;100329.36;;;0.31;100.00
36964;BME280;22878;48.616;35.326;2023-02-02T02:45:55;100327.97;;;0.31;100.00
36964;BME280;22878;48.616;35.326;2023-02-02T02:48:21;100333.64;;;0.31;100.00
36964;BME280;22878;48.616;35.326;2023-02-02T02:50:47;100336.65;;;0.29;100.00
36964;BME280;22878;48.616;35.326;2023-02-02T02:53:22;100333.39;;;0.32;100.00
36964;BME280;22878;48.616;35.326;2023-02-02T02:56:08;100341.96;;;0.34;100.00
36964;BME280;22878;48.616;35.326;2023-02-02T02:58:48;100344.58;;;0.37;100.00
36964;BME280;22878;48.616;35.326;2023-02-02T03:04:09;100346.97;;;0.46;100.00
36964;BME280;22878;48.616;35.326;2023-02-02T03:06:43;100346.25;;;0.51;100.00
36964;BME280;22878;48.616;35.326;2023-02-02T03:09:15;100348.11;;;0.54;100.00
36964;BME280;22878;48.616;35.326;2023-02-02T03:11:44;100348.02;;;0.56;100.00
36964;BME280;22878;48.616;35.326;2023-02-02T03:14:09;100346.21;;;0.59;100.00
36964;BME280;22878;48.616;35.326;2023-02-02T03:16:36;100351.78;;;0.61;100.00
36964;BME280;22878;48.616;35.326;2023-02-02T03:19:02;100351.86;;;0.60;100.00
36964;BME280;22878;48.616;35.326;2023-02-02T03:21:29;100351.62;;;0.61;100.00
36964;BME280;22878;48.616;35.326;2023-02-02T03:23:54;100351.63;;;0.63;100.00
36964;BME280;22878;48.616;35.326;2023-02-02T03:26:20;100354.08;;;0.66;100.00
36964;BME280;22878;48.616;35.326;2023-02-02T03:28:46;100357.58;;;0.67;100.00
36964;BME280;22878;48.616;35.326;2023-02-02T03:31:12;100359.77;;;0.69;100.00
36964;BME280;22878;48.616;35.326;2023-02-02T03:33:38;100363.80;;;0.69;100.00
36964;BME280;22878;48.616;35.326;2023-02-02T03:36:04;100364.86;;;0.70;100.00
36964;BME280;22878;48.616;35.326;2023-02-02T03:38:29;100368.66;;;0.71;100.00
36964;BME280;22878;48.616;35.326;2023-02-02T03:40:55;100367.27;;;0.71;100.00
36964;BME280;22878;48.616;35.326;2023-02-02T03:43:22;100370.58;;;0.73;100.00
36964;BME280;22878;48.616;35.326;2023-02-02T03:45:57;100369.65;;;0.74;100.00
36964;BME280;22878;48.616;35.326;2023-02-02T03:48:23;100374.34;;;0.75;100.00
36964;BME280;22878;48.616;35.326;2023-02-02T03:50:48;100372.10;;;0.76;100.00
36964;BME280;22878;48.616;35.326;2023-02-02T03:53:14;100374.98;;;0.74;100.00
36964;BME280;22878;48.616;35.326;2023-02-02T03:55:39;100373.60;;;0.74;100.00
36964;BME280;22878;48.616;35.326;2023-02-02T03:58:06;100376.95;;;0.75;100.00
36964;BME280;22878;48.616;35.326;2023-02-02T04:00:31;100378.48;;;0.72;100.00
36964;BME280;22878;48.616;35.326;2023-02-02T04:02:57;100379.61;;;0.74;100.00
36964;BME280;22878;48.616;35.326;2023-02-02T04:05:23;100382.58;;;0.76;100.00
36964;BME280;22878;48.616;35.326;2023-02-02T04:07:48;100383.97;;;0.74;100.00
36964;BME280;22878;48.616;35.326;2023-02-02T04:10:14;100384.58;;;0.74;100.00
36964;BME280;22878;48.616;35.326;2023-02-02T04:12:39;100382.86;;;0.74;100.00
36964;BME280;22878;48.616;35.326;2023-02-02T04:15:05;100387.67;;;0.77;100.00
36964;BME280;22878;48.616;35.326;2023-02-02T04:17:31;100390.38;;;0.78;100.00
36964;BME280;22878;48.616;35.326;2023-02-02T04:19:57;100395.39;;;0.79;100.00
36964;BME280;22878;48.616;35.326;2023-02-02T04:22:24;100395.02;;;0.79;100.00
36964;BME280;22878;48.616;35.326;2023-02-02T04:24:49;100394.10;;;0.80;100.00
36964;BME280;22878;48.616;35.326;2023-02-02T04:27:15;100394.59;;;0.80;100.00
36964;BME280;22878;48.616;35.326;2023-02-02T04:29:40;100400.06;;;0.81;100.00
36964;BME280;22878;48.616;35.326;2023-02-02T04:32:06;100397.58;;;0.82;100.00
36964;BME280;22878;48.616;35.326;2023-02-02T04:34:31;100397.38;;;0.84;100.00
36964;BME280;22878;48.616;35.326;2023-02-02T04:36:57;100399.70;;;0.85;100.00
36964;BME280;22878;48.616;35.326;2023-02-02T04:39:22;100403.54;;;0.88;100.00
36964;BME280;22878;48.616;35.326;2023-02-02T04:41:48;100404.84;;;0.87;100.00
36964;BME280;22878;48.616;35.326;2023-02-02T04:44:14;100408.33;;;0.88;100.00
36964;BME280;22878;48.616;35.326;2023-02-02T04:46:41;100407.08;;;0.85;100.00
36964;BME280;22878;48.616;35.326;2023-02-02T04:49:11;100403.54;;;0.87;100.00
36964;BME280;22878;48.616;35.326;2023-02-02T04:51:37;100408.68;;;0.88;100.00
36964;BME280;22878;48.616;35.326;2023-02-02T04:54:04;100416.45;;;0.89;100.00
36964;BME280;22878;48.616;35.326;2023-02-02T04:56:29;100416.41;;;0.91;100.00
36964;BME280;22878;48.616;35.326;2023-02-02T04:58:55;100413.51;;;0.92;100.00
36964;BME280;22878;48.616;35.326;2023-02-02T05:01:21;100414.20;;;0.90;100.00
36964;BME280;22878;48.616;35.326;2023-02-02T05:03:47;100411.34;;;0.92;100.00
36964;BME280;22878;48.616;35.326;2023-02-02T05:06:14;100413.42;;;0.91;100.00
36964;BME280;22878;48.616;35.326;2023-02-02T05:08:40;100418.20;;;0.93;100.00
36964;BME280;22878;48.616;35.326;2023-02-02T05:11:12;100421.27;;;0.95;100.00
36964;BME280;22878;48.616;35.326;2023-02-02T05:13:38;100428.85;;;0.96;100.00
36964;BME280;22878;48.616;35.326;2023-02-02T05:16:05;100433.80;;;0.98;100.00
36964;BME280;22878;48.616;35.326;2023-02-02T05:18:30;100435.94;;;0.99;100.00
36964;BME280;22878;48.616;35.326;2023-02-02T05:21:00;100436.46;;;1.00;100.00
36964;BME280;22878;48.616;35.326;2023-02-02T05:23:26;100436.67;;;1.01;100.00
36964;BME280;22878;48.616;35.326;2023-02-02T05:25:52;100440.51;;;1.02;100.00
36964;BME280;22878;48.616;35.326;2023-02-02T05:28:19;100440.27;;;1.02;100.00
36964;BME280;22878;48.616;35.326;2023-02-02T05:30:44;100444.27;;;1.05;100.00
36964;BME280;22878;48.616;35.326;2023-02-02T05:33:10;100444.10;;;1.07;100.00
36964;BME280;22878;48.616;35.326;2023-02-02T05:35:36;100445.17;;;1.08;100.00
36964;BME280;22878;48.616;35.326;2023-02-02T05:38:01;100446.20;;;1.09;100.00
36964;BME280;22878;48.616;35.326;2023-02-02T05:40:27;100449.77;;;1.12;100.00
36964;BME280;22878;48.616;35.326;2023-02-02T05:42:52;100448.34;;;1.15;100.00
36964;BME280;22878;48.616;35.326;2023-02-02T05:45:18;100454.26;;;1.16;100.00
36964;BME280;22878;48.616;35.326;2023-02-02T05:47:43;100454.05;;;1.17;100.00
36964;BME280;22878;48.616;35.326;2023-02-02T05:50:09;100455.04;;;1.19;100.00
36964;BME280;22878;48.616;35.326;2023-02-02T05:52:35;100459.98;;;1.22;100.00
36964;BME280;22878;48.616;35.326;2023-02-02T05:55:02;100465.05;;;1.22;100.00
36964;BME280;22878;48.616;35.326;2023-02-02T05:57:28;100466.92;;;1.25;100.00
36964;BME280;22878;48.616;35.326;2023-02-02T05:59:53;100464.80;;;1.27;100.00
36964;BME280;22878;48.616;35.326;2023-02-02T06:02:19;100469.02;;;1.30;100.00
36964;BME280;22878;48.616;35.326;2023-02-02T06:04:45;100469.87;;;1.31;100.00
36964;BME280;22878;48.616;35.326;2023-02-02T06:07:10;100471.88;;;1.31;100.00
36964;BME280;22878;48.616;35.326;2023-02-02T06:09:37;100473.30;;;1.31;100.00
36964;BME280;22878;48.616;35.326;2023-02-02T06:12:03;100473.80;;;1.34;100.00
36964;BME280;22878;48.616;35.326;2023-02-02T06:14:29;100477.80;;;1.34;100.00
36964;BME280;22878;48.616;35.326;2023-02-02T06:16:55;100475.77;;;1.34;100.00
36964;BME280;22878;48.616;35.326;2023-02-02T06:19:20;100478.63;;;1.34;100.00
36964;BME280;22878;48.616;35.326;2023-02-02T06:21:46;100482.52;;;1.36;100.00
36964;BME280;22878;48.616;35.326;2023-02-02T06:24:12;100488.27;;;1.40;100.00
36964;BME280;22878;48.616;35.326;2023-02-02T06:26:38;100491.34;;;1.42;100.00
36964;BME280;22878;48.616;35.326;2023-02-02T06:29:03;100491.51;;;1.42;100.00
36964;BME280;22878;48.616;35.326;2023-02-02T06:31:29;100495.67;;;1.43;100.00
36964;BME280;22878;48.616;35.326;2023-02-02T06:33:56;100492.95;;;1.47;100.00
36964;BME280;22878;48.616;35.326;2023-02-02T06:36:23;100491.23;;;1.52;100.00
36964;BME280;22878;48.616;35.326;2023-02-02T06:38:50;100491.96;;;1.58;100.00
36964;BME280;22878;48.616;35.326;2023-02-02T06:41:19;100494.92;;;1.60;100.00
36964;BME280;22878;48.616;35.326;2023-02-02T06:43:45;100499.08;;;1.64;100.00
36964;BME280;22878;48.616;35.326;2023-02-02T06:46:11;100501.09;;;1.68;100.00
36964;BME280;22878;48.616;35.326;2023-02-02T06:55:56;100510.13;;;1.35;100.00
36964;BME280;22878;48.616;35.326;2023-02-02T06:58:22;100510.89;;;1.39;100.00
36964;BME280;22878;48.616;35.326;2023-02-02T07:00:48;100514.38;;;1.43;100.00
36964;BME280;22878;48.616;35.326;2023-02-02T07:03:15;100515.52;;;1.49;100.00
36964;BME280;22878;48.616;35.326;2023-02-02T07:05:41;100518.23;;;1.56;100.00
36964;BME280;22878;48.616;35.326;2023-02-02T07:08:06;100518.23;;;1.63;100.00
36964;BME280;22878;48.616;35.326;2023-02-02T07:10:32;100520.21;;;1.69;100.00
36964;BME280;22878;48.616;35.326;2023-02-02T07:12:57;100522.40;;;1.65;100.00
36964;BME280;22878;48.616;35.326;2023-02-02T07:15:23;100522.63;;;1.68;100.00
36964;BME280;22878;48.616;35.326;2023-02-02T07:17:48;100522.17;;;1.71;100.00
36964;BME280;22878;48.616;35.326;2023-02-02T07:20:14;100522.44;;;1.77;100.00
36964;BME280;22878;48.616;35.326;2023-02-02T07:22:40;100522.80;;;1.85;100.00
36964;BME280;22878;48.616;35.326;2023-02-02T07:25:07;100524.23;;;1.88;100.00
36964;BME280;22878;48.616;35.326;2023-02-02T07:27:33;100523.86;;;1.92;100.00
36964;BME280;22878;48.616;35.326;2023-02-02T07:33:16;100520.00;;;2.02;100.00
36964;BME280;22878;48.616;35.326;2023-02-02T07:35:42;100523.36;;;2.06;100.00
36964;BME280;22878;48.616;35.326;2023-02-02T07:38:08;100521.20;;;2.10;100.00
36964;BME280;22878;48.616;35.326;2023-02-02T07:40:35;100518.30;;;2.17;100.00
36964;BME280;22878;48.616;35.326;2023-02-02T07:43:00;100514.52;;;2.20;100.00
36964;BME280;22878;48.616;35.326;2023-02-02T07:45:27;100525.80;;;2.26;100.00
36964;BME280;22878;48.616;35.326;2023-02-02T07:47:57;100526.11;;;2.34;100.00
36964;BME280;22878;48.616;35.326;2023-02-02T07:50:23;100522.64;;;2.39;100.00
36964;BME280;22878;48.616;35.326;2023-02-02T07:52:50;100522.65;;;2.45;100.00
36964;BME280;22878;48.616;35.326;2023-02-02T07:55:18;100519.62;;;2.51;100.00
36964;BME280;22878;48.616;35.326;2023-02-02T07:57:44;100524.10;;;2.58;100.00
36964;BME280;22878;48.616;35.326;2023-02-02T08:00:30;100525.11;;;2.62;100.00
36964;BME280;22878;48.616;35.326;2023-02-02T08:02:57;100527.83;;;2.70;100.00
36964;BME280;22878;48.616;35.326;2023-02-02T08:05:23;100528.34;;;2.77;100.00
36964;BME280;22878;48.616;35.326;2023-02-02T08:08:09;100531.48;;;2.87;100.00
36964;BME280;22878;48.616;35.326;2023-02-02T08:10:35;100523.71;;;2.97;100.00
36964;BME280;22878;48.616;35.326;2023-02-02T08:13:02;100526.98;;;3.10;100.00
36964;BME280;22878;48.616;35.326;2023-02-02T08:15:27;100530.34;;;3.25;100.00
36964;BME280;22878;48.616;35.326;2023-02-02T08:17:53;100530.10;;;3.38;100.00
36964;BME280;22878;48.616;35.326;2023-02-02T08:20:21;100530.93;;;3.44;100.00
36964;BME280;22878;48.616;35.326;2023-02-02T08:22:48;100529.05;;;3.42;100.00
36964;BME280;22878;48.616;35.326;2023-02-02T08:25:14;100523.48;;;3.44;100.00
36964;BME280;22878;48.616;35.326;2023-02-02T08:27:43;100525.45;;;3.50;100.00
36964;BME280;22878;48.616;35.326;2023-02-02T08:30:13;100529.06;;;3.61;100.00
36964;BME280;22878;48.616;35.326;2023-02-02T08:36:14;100534.98;;;3.63;100.00
36964;BME280;22878;48.616;35.326;2023-02-02T08:38:40;100536.45;;;3.53;100.00
36964;BME280;22878;48.616;35.326;2023-02-02T08:41:07;100533.81;;;3.49;100.00
36964;BME280;22878;48.616;35.326;2023-02-02T08:43:34;100530.79;;;3.38;100.00
36964;BME280;22878;48.616;35.326;2023-02-02T08:46:00;100532.11;;;3.39;100.00
36964;BME280;22878;48.616;35.326;2023-02-02T08:48:27;100532.23;;;3.45;100.00
36964;BME280;22878;48.616;35.326;2023-02-02T08:50:56;100532.39;;;3.59;100.00
36964;BME280;22878;48.616;35.326;2023-02-02T08:53:24;100533.98;;;3.72;100.00
36964;BME280;22878;48.616;35.326;2023-02-02T08:56:18;100529.91;;;3.80;100.00
36964;BME280;22878;48.616;35.326;2023-02-02T09:01:13;100532.52;;;3.88;100.00
36964;BME280;22878;48.616;35.326;2023-02-02T09:03:41;100531.46;;;3.92;100.00
36964;BME280;22878;48.616;35.326;2023-02-02T09:06:10;100526.24;;;3.82;100.00
36964;BME280;22878;48.616;35.326;2023-02-02T09:08:42;100519.16;;;3.81;100.00
36964;BME280;22878;48.616;35.326;2023-02-02T09:11:29;100519.80;;;3.82;100.00
36964;BME280;22878;48.616;35.326;2023-02-02T09:14:00;100514.23;;;3.87;100.00
36964;BME280;22878;48.616;35.326;2023-02-02T09:16:28;100510.89;;;3.99;100.00
36964;BME280;22878;48.616;35.326;2023-02-02T09:18:56;100510.63;;;4.20;100.00
36964;BME280;22878;48.616;35.326;2023-02-02T09:25:06;100505.29;;;4.85;100.00
36964;BME280;22878;48.616;35.326;2023-02-02T09:27:37;100509.71;;;5.02;100.00
36964;BME280;22878;48.616;35.326;2023-02-02T09:30:25;100507.08;;;5.27;100.00
36964;BME280;22878;48.616;35.326;2023-02-02T09:32:55;100503.35;;;5.55;100.00
36964;BME280;22878;48.616;35.326;2023-02-02T09:35:23;100502.05;;;5.71;100.00
36964;BME280;22878;48.616;35.326;2023-02-02T09:37:49;100500.11;;;5.90;100.00
36964;BME280;22878;48.616;35.326;2023-02-02T09:40:18;100502.63;;;5.98;100.00
36964;BME280;22878;48.616;35.326;2023-02-02T09:43:15;100500.23;;;6.03;100.00
36964;BME280;22878;48.616;35.326;2023-02-02T09:45:51;100499.83;;;6.07;100.00
36964;BME280;22878;48.616;35.326;2023-02-02T09:51:17;100501.39;;;6.26;100.00
36964;BME280;22878;48.616;35.326;2023-02-02T09:57:40;100502.56;;;6.45;100.00
36964;BME280;22878;48.616;35.326;2023-02-02T10:06:49;100501.41;;;6.36;100.00
36964;BME280;22878;48.616;35.326;2023-02-02T10:13:01;100495.39;;;6.57;100.00
36964;BME280;22878;48.616;35.326;2023-02-02T10:15:41;100494.45;;;6.59;100.00
36964;BME280;22878;48.616;35.326;2023-02-02T10:22:18;100495.16;;;6.47;100.00
36964;BME280;22878;48.616;35.326;2023-02-02T10:24:44;100495.63;;;6.56;100.00
36964;BME280;22878;48.616;35.326;2023-02-02T10:37:44;100483.11;;;7.02;100.00
36964;BME280;22878;48.616;35.326;2023-02-02T10:43:21;100486.92;;;6.78;100.00
36964;BME280;22878;48.616;35.326;2023-02-02T10:46:18;100483.23;;;6.68;100.00
36964;BME280;22878;48.616;35.326;2023-02-02T10:51:53;100485.99;;;6.80;100.00
36964;BME280;22878;48.616;35.326;2023-02-02T11:00:27;100483.95;;;6.85;100.00
36964;BME280;22878;48.616;35.326;2023-02-02T11:05:52;100481.88;;;6.96;100.00
36964;BME280;22878;48.616;35.326;2023-02-02T11:08:55;100483.66;;;6.98;100.00
36964;BME280;22878;48.616;35.326;2023-02-02T11:11:41;100485.38;;;6.98;100.00
36964;BME280;22878;48.616;35.326;2023-02-02T11:14:44;100489.32;;;7.00;100.00
36964;BME280;22878;48.616;35.326;2023-02-02T11:17:22;100492.11;;;6.86;100.00
36964;BME280;22878;48.616;35.326;2023-02-02T11:19:53;100497.14;;;6.80;100.00
36964;BME280;22878;48.616;35.326;2023-02-02T11:25:32;100490.30;;;6.63;100.00
36964;BME280;22878;48.616;35.326;2023-02-02T11:28:00;100486.39;;;6.66;100.00
36964;BME280;22878;48.616;35.326;2023-02-02T11:30:39;100487.85;;;6.79;100.00
36964;BME280;22878;48.616;35.326;2023-02-02T11:39:29;100492.14;;;6.54;100.00
36964;BME280;22878;48.616;35.326;2023-02-02T11:48:35;100497.37;;;6.32;100.00
36964;BME280;22878;48.616;35.326;2023-02-02T11:54:17;100507.75;;;6.25;100.00
36964;BME280;22878;48.616;35.326;2023-02-02T12:06:20;100511.49;;;6.23;100.00
36964;BME280;22878;48.616;35.326;2023-02-02T12:09:14;100509.23;;;6.29;100.00
36964;BME280;22878;48.616;35.326;2023-02-02T12:12:34;100513.50;;;6.37;100.00
36964;BME280;22878;48.616;35.326;2023-02-02T12:47:23;100535.57;;;5.92;100.00
36964;BME280;22878;48.616;35.326;2023-02-02T13:06:31;100554.45;;;5.56;100.00
36964;BME280;22878;48.616;35.326;2023-02-02T13:09:57;100559.20;;;5.52;100.00
36964;BME280;22878;48.616;35.326;2023-02-02T13:15:56;100559.54;;;5.49;100.00
36964;BME280;22878;48.616;35.326;2023-02-02T13:18:45;100557.73;;;5.44;100.00
36964;BME280;22878;48.616;35.326;2023-02-02T13:24:21;100561.34;;;5.36;100.00
36964;BME280;22878;48.616;35.326;2023-02-02T13:30:14;100563.69;;;5.20;100.00
36964;BME280;22878;48.616;35.326;2023-02-02T13:36:27;100571.83;;;4.99;100.00
36964;BME280;22878;48.616;35.326;2023-02-02T13:39:32;100573.60;;;4.95;100.00
36964;BME280;22878;48.616;35.326;2023-02-02T13:45:24;100575.09;;;4.83;100.00
36964;BME280;22878;48.616;35.326;2023-02-02T14:00:39;100579.39;;;4.40;100.00
36964;BME280;22878;48.616;35.326;2023-02-02T14:23:52;100594.23;;;3.70;100.00
36964;BME280;22878;48.616;35.326;2023-02-02T14:26:45;100597.92;;;3.61;100.00
36964;BME280;22878;48.616;35.326;2023-02-02T16:33:48;100705.16;;;0.90;100.00
36964;BME280;22878;48.616;35.326;2023-02-02T16:36:22;100705.83;;;0.88;100.00
36964;BME280;22878;48.616;35.326;2023-02-02T16:38:48;100707.30;;;0.89;100.00
36964;BME280;22878;48.616;35.326;2023-02-02T16:41:24;100709.13;;;0.87;100.00
36964;BME280;22878;48.616;35.326;2023-02-02T16:43:50;100715.74;;;0.87;100.00
36964;BME280;22878;48.616;35.326;2023-02-02T16:46:43;100717.16;;;0.90;100.00
36964;BME280;22878;48.616;35.326;2023-02-02T16:49:21;100718.82;;;0.88;100.00
36964;BME280;22878;48.616;35.326;2023-02-02T16:52:05;100720.52;;;0.93;100.00
36964;BME280;22878;48.616;35.326;2023-02-02T16:54:32;100729.67;;;1.02;100.00
36964;BME280;22878;48.616;35.326;2023-02-02T16:56:59;100728.12;;;1.00;100.00
36964;BME280;22878;48.616;35.326;2023-02-02T16:59:34;100731.20;;;1.03;100.00
36964;BME280;22878;48.616;35.326;2023-02-02T17:02:34;100728.37;;;1.08;100.00
36964;BME280;22878;48.616;35.326;2023-02-02T17:05:05;100734.02;;;1.15;100.00
36964;BME280;22878;48.616;35.326;2023-02-02T17:07:32;100738.66;;;1.19;100.00
36964;BME280;22878;48.616;35.326;2023-02-02T17:10:19;100740.67;;;1.23;100.00
36964;BME280;22878;48.616;35.326;2023-02-02T17:12:46;100742.45;;;1.25;100.00
36964;BME280;22878;48.616;35.326;2023-02-02T17:17:45;100746.36;;;1.31;100.00
36964;BME280;22878;48.616;35.326;2023-02-02T17:20:17;100744.06;;;1.34;100.00
36964;BME280;22878;48.616;35.326;2023-02-02T17:22:49;100740.55;;;1.36;100.00
36964;BME280;22878;48.616;35.326;2023-02-02T17:25:26;100739.13;;;1.38;100.00
36964;BME280;22878;48.616;35.326;2023-02-02T17:27:53;100738.78;;;1.40;100.00
36964;BME280;22878;48.616;35.326;2023-02-02T17:30:20;100740.86;;;1.40;100.00
36964;BME280;22878;48.616;35.326;2023-02-02T17:32:45;100743.19;;;1.38;100.00
36964;BME280;22878;48.616;35.326;2023-02-02T17:35:19;100741.98;;;1.35;100.00
36964;BME280;22878;48.616;35.326;2023-02-02T17:37:45;100742.00;;;1.32;100.00
36964;BME280;22878;48.616;35.326;2023-02-02T17:40:13;100738.70;;;1.32;100.00
36964;BME280;22878;48.616;35.326;2023-02-02T17:42:39;100739.56;;;1.33;100.00
36964;BME280;22878;48.616;35.326;2023-02-02T17:45:22;100734.78;;;1.33;100.00
36964;BME280;22878;48.616;35.326;2023-02-02T17:50:33;100732.86;;;1.34;100.00
36964;BME280;22878;48.616;35.326;2023-02-02T17:52:58;100734.45;;;1.33;100.00
36964;BME280;22878;48.616;35.326;2023-02-02T17:55:30;100733.84;;;1.32;100.00
36964;BME280;22878;48.616;35.326;2023-02-02T17:57:56;100733.69;;;1.30;100.00
36964;BME280;22878;48.616;35.326;2023-02-02T18:00:24;100737.45;;;1.29;100.00
36964;BME280;22878;48.616;35.326;2023-02-02T18:02:51;100736.39;;;1.24;100.00
36964;BME280;22878;48.616;35.326;2023-02-02T18:05:18;100742.55;;;1.21;100.00
36964;BME280;22878;48.616;35.326;2023-02-02T18:07:43;100745.50;;;1.18;100.00
36964;BME280;22878;48.616;35.326;2023-02-02T18:10:11;100743.52;;;1.16;100.00
36964;BME280;22878;48.616;35.326;2023-02-02T18:12:37;100745.34;;;1.11;100.00
36964;BME280;22878;48.616;35.326;2023-02-02T18:15:05;100743.25;;;1.09;100.00
36964;BME280;22878;48.616;35.326;2023-02-02T18:17:32;100743.86;;;1.09;100.00
36964;BME280;22878;48.616;35.326;2023-02-02T18:19:58;100743.97;;;1.08;100.00
36964;BME280;22878;48.616;35.326;2023-02-02T18:22:24;100743.84;;;1.07;100.00
36964;BME280;22878;48.616;35.326;2023-02-02T18:24:50;100744.80;;;1.04;100.00
36964;BME280;22878;48.616;35.326;2023-02-02T18:27:16;100740.23;;;1.04;100.00
36964;BME280;22878;48.616;35.326;2023-02-02T18:29:45;100744.31;;;1.05;100.00
36964;BME280;22878;48.616;35.326;2023-02-02T18:32:11;100742.73;;;1.08;100.00
36964;BME280;22878;48.616;35.326;2023-02-02T18:34:36;100739.95;;;1.10;100.00
36964;BME280;22878;48.616;35.326;2023-02-02T18:37:02;100742.53;;;1.12;100.00
36964;BME280;22878;48.616;35.326;2023-02-02T18:39:29;100745.38;;;1.12;100.00
36964;BME280;22878;48.616;35.326;2023-02-02T18:41:54;100747.95;;;1.16;100.00
36964;BME280;22878;48.616;35.326;2023-02-02T18:44:20;100746.37;;;1.18;100.00
36964;BME280;22878;48.616;35.326;2023-02-02T18:46:48;100743.80;;;1.20;100.00
36964;BME280;22878;48.616;35.326;2023-02-02T18:49:14;100745.35;;;1.24;100.00
36964;BME280;22878;48.616;35.326;2023-02-02T18:51:40;100743.80;;;1.26;100.00
36964;BME280;22878;48.616;35.326;2023-02-02T18:54:07;100747.51;;;1.25;100.00
36964;BME280;22878;48.616;35.326;2023-02-02T18:56:34;100747.08;;;1.27;100.00